デリー の空港の天気 - METARとTAF

インディラ・ガンディー国際空港 ( VIDP / DEL ) - インド デリー
飛行場実況気象(Metar)
観測時間02/28 06:00 IST (02/28 00:30 UTC)
風向・風速静穏 0m/s
視程1800m
天気現象もや
なし
気温15℃
湿度77%
気圧1014hPa
METARVIDP 280030Z 00000KT 1800 R28/P2000 R29/P2000 BR NSC 15/11 Q1014 NOSIG
過去の天気等 Google飛行場航空写真 Wunderground天気予報

過去48時間のMETAR

飛行場予報(TAF)
発表時間: 2/28 04:30 IST (2/27 23:00 UTC)
予報対象時間: 28日5時 IST ~ 1日11時 IST
風向・風速静穏
視程1,500m
天気現象もや
少しの雲 雲底高度 3,050m
28日9時 IST ~ 28日11時 IST に徐々に
風向・風速西南西 3m/s
視程2,500m
天気現象煙霧
28日13時 IST ~ 28日14時 IST に徐々に
風向・風速北北西 3m/s
視程4,000m
天気現象煙霧
全天の4割程度の雲 雲底高度 3,050m
28日19時 IST ~ 28日21時 IST に徐々に
風向・風速東北東 3m/s
視程3,000m
天気現象煙霧 もや
1日2時 IST ~ 1日3時 IST に徐々に
風向・風速東 3m/s
視程2,000m
天気現象もや
少しの雲 雲底高度 1,220m
全天の4割程度の雲 雲底高度 3,050m
1日7時 IST ~ 1日11時 IST に一時的に
視程1,000m
天気現象弱い雷雨
全天の4割程度の雲 雲底高度 760m
少しの積乱雲 雲底高度 910m
全天の8割程度の雲 雲底高度 2,740m
1日8時 IST ~ 1日10時 IST に徐々に
風向・風速東 3m/s
視程2,500m
天気現象もや 煙霧
少しの雲 雲底高度 1,220m
全天の4割程度の雲 雲底高度 3,050m
TAF VIDP 272300Z 2800/0106 00000KT 1500 BR FEW100
BECMG 2804/2806 25005KT 2500 HZ
BECMG 2808/2809 33006KT 4000 HZ SCT100
BECMG 2814/2816 06006KT 3000 HZ BR
BECMG 2821/2822 09005KT 2000 BR FEW040 SCT100
TEMPO 0102/0106 1000 -TSRA SCT025 FEW030CB BKN090
BECMG 0103/0105 09006KT 2500 BR HZ FEW040 SCT100